createdAt,value
2022-08-22T00:00:38.886Z,0.00
2022-08-22T00:01:38.811Z,0.00
2022-08-22T00:02:38.847Z,0.00
2022-08-22T00:02:43.552Z,0.00
2022-08-22T00:02:53.997Z,0.00
2022-08-22T00:02:56.791Z,0.00
2022-08-22T00:03:01.116Z,0.00
2022-08-22T00:03:01.922Z,0.00
2022-08-22T00:03:38.788Z,0.00
2022-08-22T00:04:38.777Z,0.00
2022-08-22T00:05:38.772Z,0.00
2022-08-22T00:06:38.754Z,0.00
2022-08-22T00:07:38.745Z,0.00
2022-08-22T00:08:38.733Z,0.00
2022-08-22T00:09:38.721Z,0.00
2022-08-22T00:10:38.711Z,0.00
2022-08-22T00:11:38.720Z,0.00
2022-08-22T00:12:38.691Z,0.00
2022-08-22T00:13:38.679Z,0.00
2022-08-22T00:14:38.666Z,0.00
2022-08-22T00:15:43.404Z,0.00
2022-08-22T00:16:39.654Z,0.00
2022-08-22T00:17:38.639Z,0.00
2022-08-22T00:18:38.623Z,0.00
2022-08-22T00:19:38.612Z,0.00
2022-08-22T00:20:38.601Z,0.00
2022-08-22T00:21:38.590Z,0.00
2022-08-22T00:22:38.584Z,0.00
2022-08-22T00:23:38.567Z,0.00
2022-08-22T00:24:38.557Z,0.00
2022-08-22T00:25:38.548Z,0.00
2022-08-22T00:26:42.156Z,0.00
2022-08-22T00:27:45.063Z,0.00
2022-08-22T00:28:39.511Z,0.00
2022-08-22T00:29:38.505Z,0.00
2022-08-22T00:30:38.490Z,0.00
2022-08-22T00:31:38.480Z,0.00
2022-08-22T00:32:38.468Z,0.00
2022-08-22T00:33:38.487Z,0.00
2022-08-22T00:34:38.446Z,0.00
2022-08-22T00:35:41.706Z,0.00
2022-08-22T00:36:39.425Z,0.00
2022-08-22T00:37:38.414Z,0.00
2022-08-22T00:38:38.403Z,0.00
2022-08-22T00:39:38.443Z,0.00
2022-08-22T00:40:38.382Z,0.00
2022-08-22T00:41:38.370Z,0.00
2022-08-22T00:42:38.360Z,0.00
2022-08-22T00:43:38.350Z,0.00
2022-08-22T00:44:38.341Z,0.00
2022-08-22T00:45:38.347Z,0.00
2022-08-22T00:46:38.313Z,0.00
2022-08-22T00:47:38.307Z,0.00
2022-08-22T00:48:38.294Z,0.00
2022-08-22T00:49:38.281Z,0.00
2022-08-22T00:50:38.269Z,0.00
2022-08-22T00:51:38.264Z,0.00
2022-08-22T00:52:38.248Z,0.00
2022-08-22T00:53:38.237Z,0.00
2022-08-22T00:54:38.226Z,0.00
2022-08-22T00:55:38.217Z,0.00
2022-08-22T00:56:38.204Z,0.00
2022-08-22T00:57:38.215Z,0.00
2022-08-22T00:58:38.188Z,0.00
2022-08-22T00:59:38.171Z,0.00
2022-08-22T01:00:38.161Z,0.00
2022-08-22T01:01:38.183Z,0.00
2022-08-22T01:02:38.138Z,0.00
2022-08-22T01:03:38.132Z,0.00
2022-08-22T01:04:38.116Z,0.00
2022-08-22T01:05:38.105Z,0.00
2022-08-22T01:06:38.093Z,0.00
2022-08-22T01:07:38.551Z,0.00
2022-08-22T01:08:38.071Z,0.00
2022-08-22T01:09:38.091Z,0.00
2022-08-22T01:10:38.050Z,0.00
2022-08-22T01:11:38.038Z,0.00
2022-08-22T01:12:38.027Z,0.00
2022-08-22T01:13:38.016Z,0.00
2022-08-22T01:14:38.006Z,0.00
2022-08-22T01:15:38.000Z,0.00
2022-08-22T01:16:37.983Z,0.00
2022-08-22T01:17:37.973Z,0.00
2022-08-22T01:18:37.961Z,0.00
2022-08-22T01:19:37.950Z,0.00
2022-08-22T01:20:37.939Z,0.00
2022-08-22T01:21:37.949Z,0.00
2022-08-22T01:22:37.917Z,0.00
2022-08-22T01:23:37.905Z,0.00
2022-08-22T01:24:37.902Z,0.00
2022-08-22T01:25:37.885Z,0.00
2022-08-22T01:26:37.872Z,0.00
2022-08-22T01:27:37.878Z,0.00
2022-08-22T01:28:37.854Z,0.00
2022-08-22T01:29:38.030Z,0.00
2022-08-22T01:30:37.832Z,0.00
2022-08-22T01:31:37.817Z,0.00
2022-08-22T01:32:37.808Z,0.00
2022-08-22T01:33:37.826Z,0.00
2022-08-22T01:34:37.784Z,0.00
2022-08-22T01:35:37.774Z,0.00
2022-08-22T01:36:37.763Z,0.00
2022-08-22T01:37:39.607Z,0.00
2022-08-22T01:38:38.747Z,0.00
2022-08-22T01:39:37.786Z,0.00
2022-08-22T01:40:37.719Z,0.00
2022-08-22T01:41:38.707Z,0.00
2022-08-22T01:42:37.702Z,0.00
2022-08-22T01:43:43.906Z,0.00
2022-08-22T01:44:38.680Z,0.00
2022-08-22T01:45:37.663Z,0.00
2022-08-22T01:46:37.654Z,0.00
2022-08-22T01:47:37.938Z,0.00
2022-08-22T01:48:37.631Z,0.00
2022-08-22T01:49:37.619Z,0.00
2022-08-22T01:50:37.615Z,0.00
2022-08-22T01:51:37.597Z,0.00
2022-08-22T01:52:37.586Z,0.00
2022-08-22T01:53:37.575Z,0.00
2022-08-22T01:54:37.566Z,0.00
2022-08-22T01:55:37.554Z,0.00
2022-08-22T01:56:37.547Z,0.00
2022-08-22T01:57:37.532Z,0.00
2022-08-22T01:58:37.520Z,0.00
2022-08-22T01:59:42.294Z,0.00
2022-08-22T02:00:38.497Z,0.00
2022-08-22T02:01:37.487Z,0.00
2022-08-22T02:02:37.507Z,0.00
2022-08-22T02:03:37.466Z,0.00
2022-08-22T02:04:37.454Z,0.00
2022-08-22T02:05:37.446Z,0.00
2022-08-22T02:06:37.432Z,0.00
2022-08-22T02:07:37.420Z,0.00
2022-08-22T02:08:37.417Z,0.00
2022-08-22T02:09:37.402Z,0.00
2022-08-22T02:10:37.388Z,0.00
2022-08-22T02:11:37.379Z,0.00
2022-08-22T02:12:37.366Z,0.00
2022-08-22T02:13:37.356Z,0.00
2022-08-22T02:14:37.352Z,0.00
2022-08-22T02:15:37.338Z,0.00
2022-08-22T02:16:37.329Z,0.00
2022-08-22T02:17:37.312Z,0.00
2022-08-22T02:18:37.301Z,0.00
2022-08-22T02:19:37.295Z,0.00
2022-08-22T02:20:37.284Z,0.00
2022-08-22T02:21:37.268Z,0.00
2022-08-22T02:22:37.256Z,0.00
2022-08-22T02:23:38.244Z,0.00
2022-08-22T02:24:37.235Z,0.00
2022-08-22T02:25:37.228Z,0.00
2022-08-22T02:26:37.235Z,0.00
2022-08-22T02:27:37.205Z,0.00
2022-08-22T02:28:37.189Z,0.00
2022-08-22T02:29:37.178Z,0.00
2022-08-22T02:30:37.168Z,0.00
2022-08-22T02:31:37.157Z,0.00
2022-08-22T02:32:37.151Z,0.00
2022-08-22T02:33:37.134Z,0.00
2022-08-22T02:34:37.125Z,0.00
2022-08-22T02:35:37.112Z,0.00
2022-08-22T02:36:37.100Z,0.00
2022-08-22T02:37:37.090Z,0.00
2022-08-22T02:38:37.094Z,0.00
2022-08-22T02:39:37.160Z,0.00
2022-08-22T02:40:37.057Z,0.00
2022-08-22T02:41:37.048Z,0.00
2022-08-22T02:42:37.035Z,0.00
2022-08-22T02:43:37.024Z,0.00
2022-08-22T02:44:37.043Z,0.00
2022-08-22T02:45:37.008Z,0.00
2022-08-22T02:46:36.992Z,0.00
2022-08-22T02:47:36.980Z,0.00
2022-08-22T02:48:36.970Z,0.00
2022-08-22T02:49:43.898Z,0.00
2022-08-22T02:50:37.951Z,0.00
2022-08-22T02:51:36.935Z,0.00
2022-08-22T02:52:36.924Z,0.00
2022-08-22T02:53:36.913Z,0.00
2022-08-22T02:54:36.902Z,0.00
2022-08-22T02:55:36.891Z,0.00
2022-08-22T02:56:36.887Z,0.00
2022-08-22T02:57:39.544Z,0.00
2022-08-22T02:58:36.858Z,0.00
2022-08-22T02:59:36.848Z,0.00
2022-08-22T03:00:36.926Z,0.00
2022-08-22T03:01:36.827Z,0.00
2022-08-22T03:02:36.835Z,0.00
2022-08-22T03:03:36.803Z,0.00
2022-08-22T03:04:36.796Z,0.00
2022-08-22T03:05:36.781Z,0.00
2022-08-22T03:06:36.770Z,0.00
2022-08-22T03:07:36.759Z,0.00
2022-08-22T03:08:36.771Z,0.00
2022-08-22T03:09:36.741Z,0.00
2022-08-22T03:10:36.726Z,0.00
2022-08-22T03:11:36.715Z,0.00
2022-08-22T03:12:36.706Z,0.00
2022-08-22T03:13:36.694Z,0.00
2022-08-22T03:14:36.713Z,0.00
2022-08-22T03:15:36.671Z,0.00
2022-08-22T03:16:36.669Z,0.00
2022-08-22T03:17:36.650Z,0.00
2022-08-22T03:18:36.640Z,0.00
2022-08-22T03:19:36.628Z,0.00
2022-08-22T03:20:36.633Z,0.00
2022-08-22T03:21:36.607Z,0.00
2022-08-22T03:22:36.600Z,0.00
2022-08-22T03:23:36.586Z,0.00
2022-08-22T03:24:36.573Z,0.00
2022-08-22T03:25:36.562Z,0.00
2022-08-22T03:26:36.556Z,0.00
2022-08-22T03:27:36.539Z,0.00
2022-08-22T03:28:36.530Z,0.00
2022-08-22T03:29:36.516Z,0.00
2022-08-22T03:30:36.509Z,0.00
2022-08-22T03:31:36.495Z,0.00
2022-08-22T03:32:36.494Z,0.00
2022-08-22T03:33:36.473Z,0.00
2022-08-22T03:34:36.461Z,0.00
2022-08-22T03:35:36.455Z,0.00
2022-08-22T03:36:36.441Z,0.00
2022-08-22T03:37:36.429Z,0.00
2022-08-22T03:38:36.440Z,0.00
2022-08-22T03:39:36.408Z,0.00
2022-08-22T03:40:36.396Z,0.00
2022-08-22T03:41:36.386Z,0.00
2022-08-22T03:42:36.374Z,0.00
2022-08-22T03:43:36.364Z,4.00
2022-08-22T03:44:36.359Z,4.00
2022-08-22T03:45:36.341Z,4.00
2022-08-22T03:46:36.331Z,4.00
2022-08-22T03:47:36.318Z,4.00
2022-08-22T03:48:36.307Z,4.00
2022-08-22T03:49:36.297Z,4.00
2022-08-22T03:50:36.301Z,4.00
2022-08-22T03:51:36.275Z,4.00
2022-08-22T03:52:36.265Z,4.00
2022-08-22T03:53:36.252Z,4.00
2022-08-22T03:54:36.242Z,8.00
2022-08-22T03:55:36.233Z,8.00
2022-08-22T03:56:36.248Z,8.00
2022-08-22T03:57:36.208Z,4.00
2022-08-22T03:58:36.203Z,8.00
2022-08-22T03:59:36.186Z,8.00
2022-08-22T04:00:37.186Z,12.00
2022-08-22T04:01:36.167Z,8.00
2022-08-22T04:02:42.878Z,12.00
2022-08-22T04:03:37.141Z,12.00
2022-08-22T04:04:36.131Z,12.00
2022-08-22T04:05:36.126Z,16.00
2022-08-22T04:06:36.109Z,16.00
2022-08-22T04:07:36.098Z,20.00
2022-08-22T04:08:36.124Z,16.00
2022-08-22T04:09:37.076Z,20.00
2022-08-22T04:10:36.065Z,20.00
2022-08-22T04:11:36.057Z,20.00
2022-08-22T04:12:36.044Z,24.00
2022-08-22T04:13:36.035Z,28.00
2022-08-22T04:14:36.027Z,28.00
2022-08-22T04:15:36.011Z,32.00
2022-08-22T04:16:36.000Z,36.00
2022-08-22T04:17:35.989Z,36.00
2022-08-22T04:18:35.977Z,40.00
2022-08-22T04:19:35.989Z,44.00
2022-08-22T04:20:35.993Z,44.00
2022-08-22T04:21:35.948Z,48.00
2022-08-22T04:22:35.935Z,52.00
2022-08-22T04:23:35.936Z,52.00
2022-08-22T04:24:35.918Z,56.00
2022-08-22T04:25:35.900Z,60.00
2022-08-22T04:26:35.933Z,64.00
2022-08-22T04:27:35.880Z,68.00
2022-08-22T04:28:35.867Z,68.00
2022-08-22T04:29:35.857Z,72.00
2022-08-22T04:31:51.542Z,84.00
2022-08-22T04:32:51.496Z,88.00
2022-08-22T04:33:51.490Z,92.00
2022-08-22T04:34:51.476Z,96.00
2022-08-22T04:35:51.464Z,100.00
2022-08-22T04:36:51.453Z,104.00
2022-08-22T04:37:51.448Z,108.00
2022-08-22T04:38:51.432Z,112.00
2022-08-22T04:39:51.539Z,112.00
2022-08-22T04:40:51.417Z,116.00
2022-08-22T04:41:51.399Z,120.00
2022-08-22T04:42:51.388Z,120.00
2022-08-22T04:43:51.383Z,124.00
2022-08-22T04:44:51.366Z,128.00
2022-08-22T04:45:51.354Z,132.00
2022-08-22T04:46:51.349Z,132.00
2022-08-22T04:47:53.929Z,136.00
2022-08-22T04:48:51.323Z,140.00
2022-08-22T04:49:51.316Z,144.00
2022-08-22T04:50:51.300Z,148.00
2022-08-22T04:51:51.289Z,148.00
2022-08-22T04:52:51.277Z,152.00
2022-08-22T04:53:51.265Z,156.00
2022-08-22T04:54:51.256Z,156.00
2022-08-22T04:55:51.250Z,160.00
2022-08-22T04:56:51.233Z,168.00
2022-08-22T04:57:51.222Z,168.00
2022-08-22T04:58:51.214Z,172.00
2022-08-22T04:59:51.233Z,172.00
2022-08-22T05:00:51.189Z,180.00
2022-08-22T05:01:51.231Z,184.00
2022-08-22T05:02:51.167Z,184.00
2022-08-22T05:03:51.161Z,192.00
2022-08-22T05:04:51.145Z,196.00
2022-08-22T05:05:51.134Z,204.00
2022-08-22T05:06:51.123Z,208.00
2022-08-22T05:07:51.118Z,216.00
2022-08-22T05:08:54.069Z,220.00
2022-08-22T05:09:51.090Z,232.00
2022-08-22T05:10:51.078Z,236.00
2022-08-22T05:11:51.068Z,248.00
2022-08-22T05:12:51.058Z,256.00
2022-08-22T05:13:51.067Z,264.00
2022-08-22T05:14:51.035Z,272.00
2022-08-22T05:15:51.025Z,280.00
2022-08-22T05:16:51.013Z,288.00
2022-08-22T05:17:51.002Z,292.00
2022-08-22T05:18:50.992Z,296.00
2022-08-22T05:19:50.986Z,308.00
2022-08-22T05:20:50.970Z,312.00
2022-08-22T05:21:50.956Z,320.00
2022-08-22T05:22:50.946Z,328.00
2022-08-22T05:23:50.936Z,336.00
2022-08-22T05:24:50.925Z,340.00
2022-08-22T05:25:50.918Z,352.00
2022-08-22T05:26:50.902Z,360.00
2022-08-22T05:27:53.319Z,368.00
2022-08-22T05:28:53.442Z,376.00
2022-08-22T05:29:50.871Z,384.00
2022-08-22T05:30:50.859Z,388.00
2022-08-22T05:31:50.855Z,396.00
2022-08-22T05:32:50.836Z,404.00
2022-08-22T05:33:50.825Z,408.00
2022-08-22T05:34:51.389Z,416.00
2022-08-22T05:35:54.541Z,420.00
2022-08-22T05:36:51.821Z,428.00
2022-08-22T05:37:50.783Z,432.00
2022-08-22T05:38:50.772Z,440.00
2022-08-22T05:39:50.797Z,444.00
2022-08-22T05:40:50.748Z,452.00
2022-08-22T05:41:50.736Z,460.00
2022-08-22T05:42:50.737Z,464.00
2022-08-22T05:43:50.714Z,468.00
2022-08-22T05:44:50.703Z,476.00
2022-08-22T05:45:50.692Z,484.00
2022-08-22T05:46:50.682Z,492.00
2022-08-22T05:47:50.674Z,496.00
2022-08-22T05:48:50.667Z,500.00
2022-08-22T05:49:50.648Z,504.00
2022-08-22T05:50:51.145Z,512.00
2022-08-22T05:51:50.626Z,512.00
2022-08-22T05:52:50.618Z,516.00
2022-08-22T05:53:50.603Z,524.00
2022-08-22T05:54:50.614Z,528.00
2022-08-22T05:55:50.582Z,536.00
2022-08-22T05:56:50.571Z,552.00
2022-08-22T05:57:50.560Z,560.00
2022-08-22T05:58:50.548Z,576.00
2022-08-22T05:59:50.537Z,592.00
2022-08-22T06:00:50.533Z,600.00
2022-08-22T06:01:50.587Z,616.00
2022-08-22T06:02:50.507Z,624.00
2022-08-22T06:03:50.494Z,636.00
2022-08-22T06:04:50.485Z,644.00
2022-08-22T06:05:50.476Z,656.00
2022-08-22T06:06:50.475Z,668.00
2022-08-22T06:07:50.450Z,684.00
2022-08-22T06:08:50.438Z,696.00
2022-08-22T06:09:50.436Z,712.00
2022-08-22T06:10:50.417Z,728.00
2022-08-22T06:11:51.898Z,740.00
2022-08-22T06:12:50.422Z,756.00
2022-08-22T06:13:50.384Z,764.00
2022-08-22T06:14:50.381Z,780.00
2022-08-22T06:15:50.361Z,788.00
2022-08-22T06:16:50.352Z,800.00
2022-08-22T06:17:50.339Z,812.00
2022-08-22T06:18:50.352Z,820.00
2022-08-22T06:19:50.317Z,832.00
2022-08-22T06:20:50.306Z,836.00
2022-08-22T06:21:50.297Z,840.00
2022-08-22T06:22:50.284Z,852.00
2022-08-22T06:23:50.274Z,856.00
2022-08-22T06:24:50.269Z,860.00
2022-08-22T06:25:50.251Z,860.00
2022-08-22T06:26:50.239Z,860.00
2022-08-22T06:27:50.230Z,864.00
2022-08-22T06:28:55.328Z,872.00
2022-08-22T06:29:51.213Z,872.00
2022-08-22T06:30:50.196Z,880.00
2022-08-22T06:31:50.184Z,880.00
2022-08-22T06:32:59.961Z,884.00
2022-08-22T06:33:51.161Z,888.00
2022-08-22T06:34:50.152Z,888.00
2022-08-22T06:35:50.148Z,884.00
2022-08-22T06:36:50.131Z,884.00
2022-08-22T06:37:50.117Z,884.00
2022-08-22T06:38:50.107Z,880.00
2022-08-22T06:39:50.154Z,888.00
2022-08-22T06:40:50.085Z,888.00
2022-08-22T06:41:50.079Z,888.00
2022-08-22T06:42:50.062Z,892.00
2022-08-22T06:43:50.053Z,896.00
2022-08-22T06:44:50.042Z,908.00
2022-08-22T06:45:50.031Z,916.00
2022-08-22T06:46:50.019Z,924.00
2022-08-22T06:47:51.034Z,928.00
2022-08-22T06:48:49.997Z,932.00
2022-08-22T06:49:49.986Z,936.00
2022-08-22T06:50:49.975Z,936.00
2022-08-22T06:51:49.969Z,940.00
2022-08-22T06:52:49.953Z,948.00
2022-08-22T06:53:49.987Z,948.00
2022-08-22T06:54:49.931Z,952.00
2022-08-22T06:55:49.920Z,960.00
2022-08-22T06:56:49.911Z,968.00
2022-08-22T06:57:49.898Z,976.00
2022-08-22T06:58:49.886Z,980.00
2022-08-22T06:59:49.882Z,992.00
2022-08-22T07:00:58.872Z,996.00
2022-08-22T07:01:50.925Z,1004.00
2022-08-22T07:02:49.846Z,1008.00
2022-08-22T07:03:49.831Z,1016.00
2022-08-22T07:04:49.823Z,1016.00
2022-08-22T07:05:49.815Z,1020.00
2022-08-22T07:06:49.798Z,1020.00
2022-08-22T07:07:49.786Z,1016.00
2022-08-22T07:08:49.776Z,1016.00
2022-08-22T07:09:49.766Z,1012.00
2022-08-22T07:10:49.754Z,1012.00
2022-08-22T07:11:49.757Z,1012.00
2022-08-22T07:12:49.734Z,1016.00
2022-08-22T07:13:49.720Z,1020.00
2022-08-22T07:14:49.715Z,1020.00
2022-08-22T07:15:49.700Z,1024.00
2022-08-22T07:16:49.690Z,1028.00
2022-08-22T07:17:49.707Z,1028.00
2022-08-22T07:18:49.671Z,1024.00
2022-08-22T07:19:49.655Z,1024.00
2022-08-22T07:20:49.645Z,1028.00
2022-08-22T07:21:49.633Z,1032.00
2022-08-22T07:22:49.623Z,1036.00
2022-08-22T07:23:49.632Z,1044.00
2022-08-22T07:24:49.600Z,1048.00
2022-08-22T07:25:49.595Z,1048.00
2022-08-22T07:26:49.577Z,1056.00
2022-08-22T07:27:49.569Z,1060.00
2022-08-22T07:28:51.334Z,1068.00
2022-08-22T07:29:50.550Z,1064.00
2022-08-22T07:30:49.533Z,1064.00
2022-08-22T07:31:49.522Z,1072.00
2022-08-22T07:32:49.514Z,1080.00
2022-08-22T07:33:49.500Z,1088.00
2022-08-22T07:34:49.490Z,1100.00
2022-08-22T07:35:53.357Z,1116.00
2022-08-22T07:36:49.466Z,1124.00
2022-08-22T07:37:49.459Z,1128.00
2022-08-22T07:38:49.445Z,1132.00
2022-08-22T07:39:49.480Z,1132.00
2022-08-22T07:40:49.423Z,1132.00
2022-08-22T07:41:49.418Z,1136.00
2022-08-22T07:42:49.400Z,1144.00
2022-08-22T07:43:49.392Z,1140.00
2022-08-22T07:44:49.379Z,1148.00
2022-08-22T07:45:49.368Z,1148.00
2022-08-22T07:46:49.358Z,1152.00
2022-08-22T07:47:49.911Z,1152.00
2022-08-22T07:49:08.012Z,1152.00
2022-08-22T07:49:50.323Z,1152.00
2022-08-22T07:50:49.314Z,1156.00
2022-08-22T07:51:49.302Z,1160.00
2022-08-22T07:52:49.291Z,1160.00
2022-08-22T07:53:49.288Z,1160.00
2022-08-22T07:54:49.269Z,1164.00
2022-08-22T07:55:49.996Z,1168.00
2022-08-22T07:56:49.246Z,1172.00
2022-08-22T07:57:49.235Z,1180.00
2022-08-22T07:58:49.224Z,1188.00
2022-08-22T07:59:49.220Z,1196.00
2022-08-22T08:00:49.203Z,1208.00
2022-08-22T08:01:49.288Z,1224.00
2022-08-22T08:02:49.181Z,1236.00
2022-08-22T08:03:49.170Z,1248.00
2022-08-22T08:04:49.158Z,1264.00
2022-08-22T08:05:49.156Z,1276.00
2022-08-22T08:06:49.138Z,1284.00
2022-08-22T08:07:49.130Z,1292.00
2022-08-22T08:08:49.116Z,1296.00
2022-08-22T08:09:49.119Z,1304.00
2022-08-22T08:10:49.095Z,1308.00
2022-08-22T08:11:49.101Z,1316.00
2022-08-22T08:12:52.785Z,1324.00
2022-08-22T08:13:50.058Z,1336.00
2022-08-22T08:14:49.049Z,1336.00
2022-08-22T08:15:49.038Z,1344.00
2022-08-22T08:16:49.027Z,1344.00
2022-08-22T08:17:49.031Z,1348.00
2022-08-22T08:18:49.004Z,1344.00
2022-08-22T08:19:48.994Z,1340.00
2022-08-22T08:20:48.983Z,1336.00
2022-08-22T08:21:48.972Z,1332.00
2022-08-22T08:22:48.959Z,1328.00
2022-08-22T08:23:48.979Z,1320.00
2022-08-22T08:24:48.937Z,1320.00
2022-08-22T08:25:48.928Z,1320.00
2022-08-22T08:26:48.917Z,1328.00
2022-08-22T08:27:50.413Z,1332.00
2022-08-22T08:28:48.895Z,1344.00
2022-08-22T08:29:48.913Z,1356.00
2022-08-22T08:30:48.873Z,1372.00
2022-08-22T08:31:48.860Z,1384.00
2022-08-22T08:32:48.849Z,1396.00
2022-08-22T08:33:48.839Z,1404.00
2022-08-22T08:34:48.828Z,1408.00
2022-08-22T08:36:02.962Z,1416.00
2022-08-22T08:36:49.805Z,1424.00
2022-08-22T08:37:48.794Z,1432.00
2022-08-22T08:38:48.782Z,1440.00
2022-08-22T08:39:48.822Z,1452.00
2022-08-22T08:40:48.770Z,1472.00
2022-08-22T08:41:48.756Z,1484.00
2022-08-22T08:42:48.739Z,1504.00
2022-08-22T08:43:48.729Z,1520.00
2022-08-22T08:44:48.721Z,1544.00
2022-08-22T08:45:48.706Z,1568.00
2022-08-22T08:46:55.551Z,1588.00
2022-08-22T08:47:49.760Z,1612.00
2022-08-22T08:48:48.672Z,1636.00
2022-08-22T08:49:50.576Z,1660.00
2022-08-22T08:50:48.652Z,1672.00
2022-08-22T08:51:48.639Z,1680.00
2022-08-22T08:52:52.242Z,1692.00
2022-08-22T08:53:48.648Z,1700.00
2022-08-22T08:54:48.609Z,1708.00
2022-08-22T08:55:48.597Z,1720.00
2022-08-22T08:56:48.585Z,1736.00
2022-08-22T08:57:48.584Z,1760.00
2022-08-22T08:58:48.832Z,1784.00
2022-08-22T08:59:48.568Z,1796.00
2022-08-22T09:00:48.957Z,1800.00
2022-08-22T09:01:48.610Z,1808.00
2022-08-22T09:02:48.520Z,1816.00
2022-08-22T09:03:48.511Z,1820.00
2022-08-22T09:04:48.499Z,1832.00
2022-08-22T09:05:48.493Z,1860.00
2022-08-22T09:06:52.730Z,1876.00
2022-08-22T09:07:49.463Z,1888.00
2022-08-22T09:08:50.721Z,1912.00
2022-08-22T09:09:52.415Z,1928.00
2022-08-22T09:10:48.430Z,1932.00
2022-08-22T09:11:48.426Z,1948.00
2022-08-22T09:13:49.396Z,1960.00
2022-08-22T09:14:48.385Z,1972.00
2022-08-22T09:15:56.288Z,1976.00
2022-08-22T09:16:51.778Z,1992.00
2022-08-22T09:17:48.353Z,1984.00
2022-08-22T09:18:48.342Z,1984.00
2022-08-22T09:19:48.329Z,1996.00
2022-08-22T09:20:48.319Z,2008.00
2022-08-22T09:21:48.307Z,2008.00
2022-08-22T09:22:50.634Z,2012.00
2022-08-22T09:23:48.288Z,2012.00
2022-08-22T09:24:49.274Z,2016.00
2022-08-22T09:25:48.266Z,2020.00
2022-08-22T09:26:48.253Z,2028.00
2022-08-22T09:27:48.250Z,2040.00
2022-08-22T09:28:48.237Z,2052.00
2022-08-22T09:29:54.830Z,2056.00
2022-08-22T09:30:54.112Z,2060.00
2022-08-22T09:31:52.606Z,2056.00
2022-08-22T09:32:49.190Z,2044.00
2022-08-22T09:33:48.177Z,2040.00
2022-08-22T09:34:48.188Z,2024.00
2022-08-22T09:35:48.984Z,2024.00
2022-08-22T09:36:48.178Z,2028.00
2022-08-22T09:37:48.410Z,2040.00
2022-08-22T09:38:48.328Z,2056.00
2022-08-22T09:39:48.132Z,2072.00
2022-08-22T09:40:48.113Z,2096.00
2022-08-22T09:41:48.088Z,2128.00
2022-08-22T09:42:48.081Z,2168.00
2022-08-22T09:43:48.852Z,2184.00
2022-08-22T09:44:48.056Z,2196.00
2022-08-22T09:45:48.044Z,2208.00
2022-08-22T09:46:48.049Z,2216.00
2022-08-22T09:47:48.023Z,2228.00
2022-08-22T09:48:48.012Z,2244.00
2022-08-22T09:49:48.000Z,2248.00
2022-08-22T09:50:47.989Z,2256.00
2022-08-22T09:51:48.994Z,2292.00
2022-08-22T09:52:47.967Z,2332.00
2022-08-22T09:53:47.960Z,2372.00
2022-08-22T09:54:47.946Z,2400.00
2022-08-22T09:55:47.934Z,2416.00
2022-08-22T09:56:47.925Z,2412.00
2022-08-22T09:57:47.929Z,2336.00
2022-08-22T09:58:47.902Z,2360.00
2022-08-22T09:59:47.890Z,2448.00
2022-08-22T10:00:47.937Z,2504.00
2022-08-22T10:01:48.882Z,2468.00
2022-08-22T10:02:58.347Z,2428.00
2022-08-22T10:03:48.852Z,2456.00
2022-08-22T10:04:47.835Z,2492.00
2022-08-22T10:05:47.826Z,2480.00
2022-08-22T10:06:47.813Z,2516.00
2022-08-22T10:07:47.804Z,2556.00
2022-08-22T10:08:48.789Z,2528.00
2022-08-22T10:09:47.787Z,2508.00
2022-08-22T10:10:48.769Z,2576.00
2022-08-22T10:11:47.759Z,2664.00
2022-08-22T10:12:47.749Z,2620.00
2022-08-22T10:13:47.738Z,2692.00
2022-08-22T10:14:50.397Z,2716.00
2022-08-22T10:15:47.715Z,2788.00
2022-08-22T10:16:48.107Z,2792.00
2022-08-22T10:17:47.698Z,2792.00
2022-08-22T10:18:53.871Z,2784.00
2022-08-22T10:19:48.671Z,2892.00
2022-08-22T10:20:47.665Z,2900.00
2022-08-22T10:21:47.649Z,2912.00
2022-08-22T10:22:47.639Z,2892.00
2022-08-22T10:23:47.628Z,2932.00
2022-08-22T10:24:47.618Z,2940.00
2022-08-22T10:25:47.606Z,2972.00
2022-08-22T10:26:47.617Z,2992.00
2022-08-22T10:27:47.584Z,3060.00
2022-08-22T10:28:47.573Z,3064.00
2022-08-22T10:29:47.565Z,3176.00
2022-08-22T10:30:47.553Z,3052.00
2022-08-22T10:31:59.444Z,3288.00
2022-08-22T10:32:48.535Z,3324.00
2022-08-22T10:33:47.521Z,3400.00
2022-08-22T10:34:47.509Z,3420.00
2022-08-22T10:35:47.500Z,3328.00
2022-08-22T10:36:47.490Z,3192.00
2022-08-22T10:37:47.478Z,3156.00
2022-08-22T10:38:47.491Z,3040.00
2022-08-22T10:39:47.507Z,3316.00
2022-08-22T10:40:47.703Z,3476.00
2022-08-22T10:41:47.435Z,3540.00
2022-08-22T10:42:47.424Z,3620.00
2022-08-22T10:43:47.413Z,3796.00
2022-08-22T10:44:47.411Z,4128.00
2022-08-22T10:45:47.392Z,4288.00
2022-08-22T10:46:47.381Z,4396.00
2022-08-22T10:47:47.371Z,4420.00
2022-08-22T10:48:47.357Z,4560.00
2022-08-22T10:49:47.348Z,4524.00
2022-08-22T10:50:47.344Z,4596.00
2022-08-22T10:51:47.326Z,4744.00
2022-08-22T10:52:47.317Z,4976.00
2022-08-22T10:53:47.305Z,4856.00
2022-08-22T10:54:47.307Z,4720.00
2022-08-22T10:55:47.283Z,4516.00
2022-08-22T10:56:47.278Z,4396.00
2022-08-22T10:57:52.101Z,4364.00
2022-08-22T10:58:49.096Z,4380.00
2022-08-22T10:59:47.858Z,4548.00
2022-08-22T11:00:50.114Z,4356.00
2022-08-22T11:01:47.277Z,4244.00
2022-08-22T11:02:47.237Z,4292.00
2022-08-22T11:03:47.198Z,4320.00
2022-08-22T11:04:47.187Z,4252.00
2022-08-22T11:05:48.866Z,4232.00
2022-08-22T11:06:47.166Z,4384.00
2022-08-22T11:07:48.544Z,4216.00
2022-08-22T11:08:47.149Z,4216.00
2022-08-22T11:09:47.134Z,4404.00
2022-08-22T11:10:47.127Z,4960.00
2022-08-22T11:11:47.539Z,4796.00
2022-08-22T11:12:47.100Z,4796.00
2022-08-22T11:13:47.090Z,5340.00
2022-08-22T11:14:47.085Z,4408.00
2022-08-22T11:15:47.068Z,4308.00
2022-08-22T11:16:47.057Z,4340.00
2022-08-22T11:17:54.078Z,4248.00
2022-08-22T11:19:02.816Z,4188.00
2022-08-22T11:19:48.030Z,4152.00
2022-08-22T11:20:47.017Z,4224.00
2022-08-22T11:21:47.005Z,4456.00
2022-08-22T11:22:47.085Z,4528.00
2022-08-22T11:23:46.985Z,4624.00
2022-08-22T11:24:55.765Z,4776.00
2022-08-22T11:25:53.747Z,4804.00
2022-08-22T11:26:47.948Z,4888.00
2022-08-22T11:27:46.938Z,4904.00
2022-08-22T11:28:50.774Z,4880.00
2022-08-22T11:29:46.917Z,4680.00
2022-08-22T11:30:46.906Z,4596.00
2022-08-22T11:31:47.251Z,4748.00
2022-08-22T11:32:46.896Z,4916.00
2022-08-22T11:33:47.764Z,4860.00
2022-08-22T11:34:46.862Z,4480.00
2022-08-22T11:35:46.851Z,3956.00
2022-08-22T11:36:46.843Z,3732.00
2022-08-22T11:37:46.837Z,3544.00
2022-08-22T11:38:46.821Z,3424.00
2022-08-22T11:39:47.158Z,3500.00
2022-08-22T11:40:46.800Z,3600.00
2022-08-22T11:41:52.201Z,3780.00
2022-08-22T11:42:47.898Z,3868.00
2022-08-22T11:43:46.762Z,3844.00
2022-08-22T11:44:50.169Z,3844.00
2022-08-22T11:45:46.742Z,3848.00
2022-08-22T11:46:46.736Z,3564.00
2022-08-22T11:47:46.719Z,3500.00
2022-08-22T11:48:47.074Z,3468.00
2022-08-22T11:49:46.714Z,3744.00
2022-08-22T11:50:46.687Z,4108.00
2022-08-22T11:51:46.676Z,4564.00
2022-08-22T11:52:51.623Z,5212.00
2022-08-22T11:53:47.659Z,6224.00
2022-08-22T11:54:46.647Z,6524.00
2022-08-22T11:55:46.635Z,6508.00
2022-08-22T11:56:46.622Z,6344.00
2022-08-22T11:57:46.611Z,6372.00
2022-08-22T11:58:46.604Z,7304.00
2022-08-22T11:59:47.744Z,7512.00
2022-08-22T12:00:46.578Z,7820.00
2022-08-22T12:01:46.612Z,7996.00
2022-08-22T12:02:47.366Z,7660.00
2022-08-22T12:03:46.549Z,7848.00
2022-08-22T12:04:47.644Z,8464.00
2022-08-22T12:05:46.533Z,9636.00
2022-08-22T12:06:46.806Z,8636.00
2022-08-22T12:07:50.529Z,8004.00
2022-08-22T12:08:46.490Z,10368.00
2022-08-22T12:09:47.693Z,9040.00
2022-08-22T12:10:46.475Z,9572.00
2022-08-22T12:11:46.459Z,11196.00
2022-08-22T12:12:46.447Z,12168.00
2022-08-22T12:13:46.438Z,13428.00
2022-08-22T12:14:46.425Z,9204.00
2022-08-22T12:15:46.420Z,9496.00
2022-08-22T12:16:47.359Z,5460.00
2022-08-22T12:17:55.485Z,4692.00
2022-08-22T12:18:47.383Z,5140.00
2022-08-22T12:20:14.419Z,7852.00
2022-08-22T12:20:47.360Z,9844.00
2022-08-22T12:21:46.350Z,10028.00
2022-08-22T12:22:49.914Z,13576.00
2022-08-22T12:23:49.526Z,6988.00
2022-08-22T12:24:46.321Z,5500.00
2022-08-22T12:25:46.308Z,6780.00
2022-08-22T12:26:46.295Z,9964.00
2022-08-22T12:27:48.606Z,10180.00
2022-08-22T12:28:46.281Z,16668.00
2022-08-22T12:29:46.264Z,18580.00
2022-08-22T12:30:46.255Z,25120.00
2022-08-22T12:31:46.243Z,16484.00